Weather

Rainfall Maps have ended for the season and will begin again on June 1st.

*Note: Some stations are located near irrigated fields and may also report irrigation

Forrest Carberry Carberry North Wawanesa Glenboro Glenora Treherne Gladstone Portage East High Bluff Elm Creek Carman Winkler Kuhl Farm Morris St.Adolphe Steinbach Selkirk Macdonald Shilo Rivers Somerset Reinland Altona Starbuck St.Pierre Winkler




Gladstone - Historical Weather Data
Date Max Temp (°C) Min Temp (°C) Avg Temp (°C) Rain (mm) Avg RH (%) Solar Radiation (W/m2)
4/25/2018 21.2 3.9 11.7 0.0 44.0 18.7
4/24/2018 14.6 -1.9 5.8 0.0 58.0 25.1
4/23/2018 14.3 1.9 8.5 0.0 57.0 23.0
4/22/2018 18.9 6.1 11.7 0.0 53.0 17.8
4/21/2018 18.7 1.4 10.3 0.0 61.0 23.2
4/20/2018 16.2 -3.4 6.4 0.0 65.0 20.8
4/19/2018 13.9 -3.0 4.9 0.0 67.0 23.4
4/18/2018 12.5 -3.7 3.9 0.0 51.0 21.0
4/17/2018 8.4 -5.3 1.6 0.0 52.0 19.0
4/16/2018 5.7 -8.5 -0.9 0.0 59.0 24.0
4/15/2018 5.0 -8.1 -1.7 0.0 62.0 23.8
4/14/2018 2.6 -8.7 -3.5 0.0 60.0 20.5
4/13/2018 -1.6 -9.8 -5.7 0.0 51.0 23.2
4/12/2018 -0.4 -5.6 -2.9 0.9 67.0 20.9
4/11/2018 2.3 -6.4 -1.8 1.8 71.0 18.3
4/10/2018 4.1 -4.9 -0.1 0.0 71.0 17.4
4/9/2018 0.9 -12.9 -5.4 0.0 65.0 21.8
4/8/2018 -2.8 -17.4 -9.2 0.0 65.0 21.1
4/7/2018 -3.8 -17.1 -10.2 0.0 61.0 22.5
4/6/2018 -5.8 -18.8 -12.5 0.0 63.0 22.1
4/5/2018 -3.4 -15.6 -8.6 0.4 63.0 18.1
4/4/2018 -2.4 -13.4 -7.4 0.0 62.0 21.4
4/3/2018 -3.4 -19.5 -11.0 0.0 65.0 20.8
4/2/2018 -11.7 -19.1 -15.1 0.0 57.0 21.2
4/1/2018 -4.7 -12.8 -9.1 0.0 62.0 20.7
3/31/2018 -9.1 -17.8 -13.2 0.0 60.0 20.7
3/30/2018 -8.8 -20.2 -13.9 0.0 58.0 19.0
3/29/2018 -8.4 -17.0 -11.6 0.0 67.0 17.3
3/28/2018 2.2 -9.8 -6.3 2.2 75.0 18.8
3/27/2018 6.7 -3.7 0.7 0.7 79.0 18.3
3/26/2018 2.5 -1.7 -0.1 0.0 90.0 8.3
3/25/2018 6.0 -0.9 1.8 0.0 80.0 14.3
3/24/2018 0.1 -2.3 -1.0 0.0 88.0 5.7
3/23/2018 2.2 -7.2 -2.0 0.0 83.0 14.5
3/22/2018 3.2 -7.2 -3.4 0.0 92.0 14.0
3/21/2018 0.3 -7.1 -3.3 0.0 93.0 12.4
3/20/2018 -1.6 -10.2 -6.0 0.0 78.0 11.7
3/19/2018 -3.9 -8.8 -6.5 0.0 66.0 12.9
3/18/2018 1.5 -5.6 -1.8 0.0 80.0 15.8
3/17/2018 1.6 -15.1 -4.5 0.0 64.0 16.8
3/16/2018 -1.4 -20.6 -11.0 0.0 78.0 17.4
3/15/2018 -6.3 -17.4 -11.8 0.0 76.0 17.2
3/14/2018 -2.2 -11.3 -4.8 0.0 73.0 17.1
3/13/2018 2.7 -16.4 -5.7 0.0 74.0 14.9
3/12/2018 -0.3 -14.8 -6.3 0.0 67.0 16.4
3/11/2018 1.7 -12.4 -5.0 0.0 73.0 16.0
3/10/2018 -0.1 -10.3 -5.9 1.9 83.0 10.0
3/9/2018 -6.2 -20.8 -13.6 0.0 86.0 14.2
3/8/2018 -2.4 -19.1 -12.2 0.0 84.0 11.5
3/7/2018 -4.2 -18.3 -11.2 0.0 82.0 12.3
3/6/2018 -3.6 -15.7 -9.1 0.0 74.0 13.5
3/5/2018 -0.2 -3.7 -1.3 2.0 97.0 6.1
3/4/2018 1.4 -0.9 0.1 3.8 86.0 4.4
3/3/2018 1.0 -11.0 -4.6 0.0 78.0 11.5
3/2/2018 -3.5 -12.6 -7.4 0.0 79.0 11.2
3/1/2018 0.8 -12.9 -5.8 0.0 78.0 13.7
2/28/2018 0.6 -9.7 -5.2 0.0 75.0 13.2
2/27/2018 0.7 -13.8 -6.7 0.0 72.0 13.2
2/26/2018 -0.5 -14.7 -7.6 0.0 78.0 10.5
2/25/2018 -3.2 -14.3 -8.6 0.0 80.0 11.3
2/24/2018 -4.2 -15.7 -9.1 0.4 73.0 10.7
2/23/2018 -8.0 -23.5 -14.7 0.0 75.0 12.3
2/22/2018 -6.7 -22.6 -14.8 0.0 68.0 12.2
2/21/2018 -14.1 -21.1 -17.7 0.0 67.0 11.0
2/20/2018 -11.1 -16.6 -14.2 0.0 68.0 10.3
2/19/2018 -13.0 -30.1 -20.2 0.0 68.0 10.0
2/18/2018 -12.2 -21.9 -17.3 0.0 71.0 8.8
2/17/2018 -10.0 -18.5 -13.3 0.0 66.0 11.4
2/16/2018 -8.7 -20.1 -14.5 0.0 70.0 8.3
2/15/2018 -14.6 -24.2 -20.0 0.0 65.0 10.6
2/14/2018 -0.8 -14.7 -5.1 1.0 83.0 4.5
2/13/2018 -4.3 -21.4 -11.3 0.0 67.0 5.8
2/12/2018 -16.9 -29.7 -23.8 0.0 61.0 10.4
2/11/2018 -13.1 -28.8 -19.1 0.0 71.0 9.7
2/10/2018 -12.0 -20.2 -16.1 0.0 68.0 6.5
2/9/2018 -13.8 -26.5 -19.9 0.0 67.0 9.6
2/8/2018 -16.2 -29.3 -22.4 0.0 71.0 8.9
2/7/2018 -17.1 -25.7 -21.1 0.0 71.0 9.5
2/6/2018 -15.2 -24.7 -20.4 0.0 70.0 7.3
2/5/2018 -15.9 -24.9 -19.8 0.0 67.0 8.3
2/4/2018 -16.1 -28.0 -21.4 0.0 63.0 4.7
2/3/2018 -21.8 -32.5 -24.7 0.0 72.0 7.2
2/2/2018 -14.4 -24.9 -20.4 0.6 77.0 4.3
2/1/2018 -19.1 -27.0 -22.6 0.0 67.0 8.3
1/31/2018 -14.4 -21.3 -18.3 0.0 65.0 7.3
1/30/2018 2.8 -21.6 -11.7 0.2 77.0 4.9
1/29/2018 -17.4 -23.9 -20.9 0.0 76.0 7.9
1/28/2018 -21.2 -27.3 -23.1 0.0 75.0 7.3
1/27/2018 -10.3 -21.7 -16.5 0.5 79.0 5.3
1/26/2018 -4.1 -10.3 -5.5 2.2 94.0 1.9
1/25/2018 -3.8 -13.1 -7.7 0.0 94.0 2.3
1/24/2018 -3.6 -13.6 -11.2 0.0 89.0 2.5
1/23/2018 -3.3 -6.5 -5.1 0.0 86.0 1.9
1/22/2018 -4.3 -7.3 -6.0 0.0 87.0 2.1
1/21/2018 -6.1 -9.2 -7.7 0.0 86.0 2.0
1/20/2018 0.2 -12.1 -5.4 0.0 87.0 6.0
1/19/2018 3.5 -2.9 1.5 0.0 80.0 5.0
1/18/2018 2.3 -7.3 -4.2 0.0 78.0 3.5
1/17/2018 4.2 -10.8 -3.8 0.0 67.0 6.3
1/16/2018 -9.3 -25.4 -15.9 0.0 58.0 5.8
1/15/2018 -22.7 -29.3 -25.9 0.0 71.0 6.3
1/14/2018 -14.2 -24.4 -18.4 0.8 75.0 3.6
1/13/2018 -17.2 -28.9 -23.3 0.0 66.0 6.0
1/12/2018 -19.1 -28.7 -24.5 0.0 65.0 6.0
1/11/2018 -21.4 -28.2 -24.7 0.0 68.0 5.5
1/10/2018 -0.2 -21.5 -13.6 0.0 79.0 2.3
1/9/2018 -4.2 -18.8 -10.3 0.0 87.0 4.0
1/8/2018 -3.4 -15.1 -9.9 0.0 79.0 4.9
1/7/2018 1.0 -9.0 -2.9 0.0 77.0 4.3
1/6/2018 -7.1 -17.5 -11.2 0.0 78.0 2.5
1/5/2018 -17.1 -30.1 -23.2 0.0 74.0 3.9
1/4/2018 -19.0 -26.9 -22.2 0.0 75.0 3.9
1/3/2018 -19.0 -25.0 -21.3 0.0 73.0 3.4
1/2/2018 -12.1 -22.0 -18.2 0.0 69.0 3.6
1/1/2018 -18.8 -28.4 -23.5 0.0 65.0 5.4
12/31/2017 -21.9 -32.8 -27.1 0.0 67.0 5.2
12/30/2017 -27.7 -36.1 -32.3 0.0 65.0 5.3
12/29/2017 -24.6 -33.8 -28.6 0.0 71.0 5.0
12/28/2017 -21.4 -30.6 -23.8 0.7 75.0 4.8
12/27/2017 -21.4 -30.3 -25.6 0.0 67.0 4.5
12/26/2017 -24.1 -29.3 -27.3 0.0 63.0 5.0
12/25/2017 -25.2 -29.4 -27.4 0.0 61.0 5.0
12/24/2017 -19.9 -29.6 -24.6 0.0 73.0 3.9
12/23/2017 -8.4 -24.7 -16.1 0.3 74.0 2.6
12/22/2017 -9.4 -17.6 -11.3 0.4 74.0 2.5
12/21/2017 -10.9 -25.1 -17.7 0.0 75.0 4.9
12/20/2017 -16.4 -25.9 -20.3 0.0 82.0 3.1
12/19/2017 -2.6 -22.8 -11.5 0.0 69.0 3.0
12/18/2017 0.4 -4.5 -1.0 0.0 75.0 2.3
12/17/2017 1.0 -9.0 -4.4 0.0 75.0 4.8
12/16/2017 -2.5 -12.7 -8.6 0.3 89.0 4.2
12/15/2017 -7.8 -11.0 -9.5 1.2 88.0 2.2
12/14/2017 -5.8 -9.4 -7.3 0.2 87.0 2.4
12/13/2017 -1.1 -11.6 -5.5 0.0 86.0 1.5
12/12/2017 2.9 -10.2 -2.8 0.0 84.0 3.6
12/11/2017 2.8 -17.8 -9.3 0.0 84.0 4.4
12/10/2017 1.5 -8.7 -5.1 2.3 85.0 3.1
12/9/2017 -0.2 -9.6 -5.2 0.0 76.0 3.1
12/8/2017 4.5 -9.1 -4.8 0.0 78.0 4.7
12/7/2017 -2.9 -14.9 -7.3 0.0 80.0 2.6
12/6/2017 -11.0 -15.6 -13.1 0.0 68.0 4.9
12/5/2017 -9.3 -17.9 -13.0 0.0 72.0 5.4
12/4/2017 -3.9 -14.3 -6.9 0.5 84.0 2.7
12/3/2017 -1.6 -11.0 -4.9 0.0 89.0 3.0
12/2/2017 3.3 -9.4 -2.9 0.0 81.0 5.2
12/1/2017 1.7 -8.2 -3.2 0.0 82.0 4.1
11/30/2017 2.5 -2.0 0.0 0.0 79.0 5.3
11/29/2017 4.9 -5.6 1.3 0.6 69.0 2.1
11/28/2017 2.9 -9.6 -4.3 0.4 65.0 5.5
11/27/2017 4.9 -7.6 0.0 0.0 82.0 3.6
11/26/2017 0.0 -8.4 -6.1 0.0 84.0 2.4
11/25/2017 1.4 -14.2 -6.5 0.0 82.0 4.3
11/24/2017 4.9 -8.7 0.2 0.0 79.0 6.1
11/23/2017 6.8 -7.9 -3.3 0.0 84.0 3.6
11/22/2017 -5.7 -16.4 -9.9 0.1 80.0 3.3
11/21/2017 -7.8 -14.5 -11.2 0.0 74.0 6.3
11/20/2017 4.0 -11.9 -4.8 0.0 80.0 2.3
11/19/2017 -4.0 -14.1 -10.3 0.0 79.0 6.1
11/18/2017 -9.8 -16.3 -12.2 0.2 72.0 7.0
11/17/2017 0.6 -13.2 -8.0 0.0 72.0 6.9
11/16/2017 -1.0 -10.2 -6.0 0.0 87.0 2.3
11/15/2017 -4.5 -10.4 -9.5 0.0 85.0 3.3
11/14/2017 0.7 -12.6 -5.2 0.0 90.0 5.3
11/13/2017 -2.9 -12.3 -6.7 0.0 84.0 7.3
11/12/2017 -3.3 -9.8 -6.1 0.0 79.0 6.6
11/11/2017 -4.7 -12.9 -6.6 0.7 87.0 3.7
11/10/2017 -6.9 -19.4 -11.3 1.5 79.0 3.4
11/9/2017 -11.0 -21.3 -16.0 0.0 74.0 8.1
11/8/2017 -7.8 -17.1 -11.6 0.1 78.0 5.1
11/7/2017 -5.2 -18.1 -11.0 0.0 75.0 7.6
11/6/2017 -6.0 -16.1 -11.6 0.0 74.0 8.5
11/5/2017 -4.1 -12.6 -7.8 0.0 74.0 8.3
11/4/2017 -2.1 -6.7 -4.1 4.5 91.0 3.7
11/3/2017 -2.6 -13.1 -6.8 0.0 83.0 5.2
11/2/2017 -1.4 -10.9 -4.2 0.0 81.0 6.2
11/1/2017 -0.9 -7.8 -3.4 1.3 90.0 3.1
10/31/2017 -2.0 -12.1 -6.1 0.0 79.0 5.6